sensor_id;sensor_type;location;lat;lon;timestamp;P1;durP1;ratioP1;P2;durP2;ratioP2
12818;SDS011;6474;53.474;9.894;2022-10-31T00:01:38;5.13;;;4.63;;
12818;SDS011;6474;53.474;9.894;2022-10-31T00:04:10;4.57;;;4.13;;
12818;SDS011;6474;53.474;9.894;2022-10-31T00:06:42;6.80;;;4.40;;
12818;SDS011;6474;53.474;9.894;2022-10-31T00:09:10;6.57;;;4.03;;
12818;SDS011;6474;53.474;9.894;2022-10-31T00:11:38;6.27;;;4.40;;
12818;SDS011;6474;53.474;9.894;2022-10-31T00:14:12;5.80;;;4.63;;
12818;SDS011;6474;53.474;9.894;2022-10-31T00:16:42;9.13;;;5.10;;
12818;SDS011;6474;53.474;9.894;2022-10-31T00:19:10;6.60;;;5.30;;
12818;SDS011;6474;53.474;9.894;2022-10-31T00:21:38;4.90;;;4.40;;
12818;SDS011;6474;53.474;9.894;2022-10-31T00:24:07;5.60;;;4.57;;
12818;SDS011;6474;53.474;9.894;2022-10-31T00:26:35;5.20;;;4.70;;
12818;SDS011;6474;53.474;9.894;2022-10-31T00:29:03;5.07;;;4.53;;
12818;SDS011;6474;53.474;9.894;2022-10-31T00:31:31;6.97;;;4.67;;
12818;SDS011;6474;53.474;9.894;2022-10-31T00:33:59;5.17;;;4.53;;
12818;SDS011;6474;53.474;9.894;2022-10-31T00:36:30;8.20;;;5.03;;
12818;SDS011;6474;53.474;9.894;2022-10-31T00:38:58;6.63;;;3.87;;
12818;SDS011;6474;53.474;9.894;2022-10-31T00:41:28;11.77;;;4.93;;
12818;SDS011;6474;53.474;9.894;2022-10-31T00:43:56;7.33;;;5.40;;
12818;SDS011;6474;53.474;9.894;2022-10-31T00:46:24;9.30;;;4.43;;
12818;SDS011;6474;53.474;9.894;2022-10-31T00:48:52;16.13;;;5.33;;
12818;SDS011;6474;53.474;9.894;2022-10-31T00:51:20;5.93;;;5.20;;
12818;SDS011;6474;53.474;9.894;2022-10-31T00:53:47;5.93;;;5.27;;
12818;SDS011;6474;53.474;9.894;2022-10-31T00:56:15;8.20;;;4.83;;
12818;SDS011;6474;53.474;9.894;2022-10-31T00:58:44;5.07;;;4.67;;
12818;SDS011;6474;53.474;9.894;2022-10-31T01:01:12;7.43;;;5.13;;
12818;SDS011;6474;53.474;9.894;2022-10-31T01:03:40;5.37;;;4.43;;
12818;SDS011;6474;53.474;9.894;2022-10-31T01:06:08;6.77;;;5.00;;
12818;SDS011;6474;53.474;9.894;2022-10-31T01:08:37;4.77;;;4.43;;
12818;SDS011;6474;53.474;9.894;2022-10-31T01:11:06;6.13;;;5.47;;
12818;SDS011;6474;53.474;9.894;2022-10-31T01:13:36;6.00;;;5.33;;
12818;SDS011;6474;53.474;9.894;2022-10-31T01:16:07;6.13;;;5.53;;
12818;SDS011;6474;53.474;9.894;2022-10-31T01:18:37;7.73;;;6.20;;
12818;SDS011;6474;53.474;9.894;2022-10-31T01:21:06;5.90;;;5.00;;
12818;SDS011;6474;53.474;9.894;2022-10-31T01:23:36;11.37;;;5.87;;
12818;SDS011;6474;53.474;9.894;2022-10-31T01:26:05;7.10;;;5.40;;
12818;SDS011;6474;53.474;9.894;2022-10-31T01:28:35;7.77;;;5.37;;
12818;SDS011;6474;53.474;9.894;2022-10-31T01:31:07;7.10;;;5.70;;
12818;SDS011;6474;53.474;9.894;2022-10-31T01:33:35;7.03;;;5.30;;
12818;SDS011;6474;53.474;9.894;2022-10-31T01:36:10;8.97;;;5.63;;
12818;SDS011;6474;53.474;9.894;2022-10-31T01:38:40;9.87;;;6.07;;
12818;SDS011;6474;53.474;9.894;2022-10-31T01:41:08;9.10;;;6.40;;
12818;SDS011;6474;53.474;9.894;2022-10-31T01:43:43;5.70;;;5.20;;
12818;SDS011;6474;53.474;9.894;2022-10-31T01:46:17;8.43;;;5.43;;
12818;SDS011;6474;53.474;9.894;2022-10-31T01:48:48;7.00;;;5.57;;
12818;SDS011;6474;53.474;9.894;2022-10-31T01:51:17;6.00;;;5.20;;
12818;SDS011;6474;53.474;9.894;2022-10-31T01:53:50;7.83;;;5.27;;
12818;SDS011;6474;53.474;9.894;2022-10-31T01:56:20;5.33;;;4.97;;
12818;SDS011;6474;53.474;9.894;2022-10-31T01:58:49;9.07;;;5.40;;
12818;SDS011;6474;53.474;9.894;2022-10-31T02:01:19;6.40;;;5.53;;
12818;SDS011;6474;53.474;9.894;2022-10-31T02:03:48;7.90;;;5.40;;
12818;SDS011;6474;53.474;9.894;2022-10-31T02:06:19;7.47;;;5.87;;
12818;SDS011;6474;53.474;9.894;2022-10-31T02:09:03;7.13;;;5.20;;
12818;SDS011;6474;53.474;9.894;2022-10-31T02:11:33;12.10;;;5.57;;
12818;SDS011;6474;53.474;9.894;2022-10-31T02:14:03;6.40;;;5.80;;
12818;SDS011;6474;53.474;9.894;2022-10-31T02:16:32;6.67;;;5.57;;
12818;SDS011;6474;53.474;9.894;2022-10-31T02:19:00;6.77;;;4.60;;
12818;SDS011;6474;53.474;9.894;2022-10-31T02:21:30;8.20;;;6.27;;
12818;SDS011;6474;53.474;9.894;2022-10-31T02:24:16;11.83;;;5.60;;
12818;SDS011;6474;53.474;9.894;2022-10-31T02:27:11;6.87;;;6.13;;
12818;SDS011;6474;53.474;9.894;2022-10-31T02:35:41;8.80;;;5.17;;
12818;SDS011;6474;53.474;9.894;2022-10-31T02:38:21;7.57;;;4.90;;
12818;SDS011;6474;53.474;9.894;2022-10-31T02:40:55;6.50;;;5.43;;
12818;SDS011;6474;53.474;9.894;2022-10-31T02:43:31;6.20;;;5.23;;
12818;SDS011;6474;53.474;9.894;2022-10-31T02:46:06;6.77;;;5.20;;
12818;SDS011;6474;53.474;9.894;2022-10-31T02:48:42;6.43;;;5.03;;
12818;SDS011;6474;53.474;9.894;2022-10-31T02:51:12;6.13;;;5.53;;
12818;SDS011;6474;53.474;9.894;2022-10-31T02:53:41;6.37;;;5.13;;
12818;SDS011;6474;53.474;9.894;2022-10-31T02:56:11;6.57;;;5.60;;
12818;SDS011;6474;53.474;9.894;2022-10-31T02:58:42;7.10;;;5.77;;
12818;SDS011;6474;53.474;9.894;2022-10-31T03:01:19;7.27;;;5.03;;
12818;SDS011;6474;53.474;9.894;2022-10-31T03:04:13;13.00;;;5.80;;
12818;SDS011;6474;53.474;9.894;2022-10-31T03:07:00;11.70;;;5.90;;
12818;SDS011;6474;53.474;9.894;2022-10-31T03:09:40;9.33;;;5.23;;
12818;SDS011;6474;53.474;9.894;2022-10-31T03:12:14;7.00;;;5.40;;
12818;SDS011;6474;53.474;9.894;2022-10-31T03:14:50;6.43;;;5.80;;
12818;SDS011;6474;53.474;9.894;2022-10-31T03:17:22;6.83;;;5.40;;
12818;SDS011;6474;53.474;9.894;2022-10-31T03:19:55;7.40;;;5.67;;
12818;SDS011;6474;53.474;9.894;2022-10-31T03:22:28;5.23;;;4.73;;
12818;SDS011;6474;53.474;9.894;2022-10-31T03:24:59;5.33;;;4.83;;
12818;SDS011;6474;53.474;9.894;2022-10-31T03:27:31;5.70;;;5.27;;
12818;SDS011;6474;53.474;9.894;2022-10-31T03:30:02;5.87;;;5.33;;
12818;SDS011;6474;53.474;9.894;2022-10-31T03:32:32;6.80;;;4.67;;
12818;SDS011;6474;53.474;9.894;2022-10-31T03:35:06;6.30;;;5.40;;
12818;SDS011;6474;53.474;9.894;2022-10-31T03:37:37;6.03;;;5.43;;
12818;SDS011;6474;53.474;9.894;2022-10-31T03:40:06;5.97;;;5.37;;
12818;SDS011;6474;53.474;9.894;2022-10-31T03:42:37;7.53;;;5.90;;
12818;SDS011;6474;53.474;9.894;2022-10-31T03:45:09;6.90;;;5.37;;
12818;SDS011;6474;53.474;9.894;2022-10-31T03:47:40;7.03;;;6.00;;
12818;SDS011;6474;53.474;9.894;2022-10-31T03:50:12;9.57;;;5.03;;
12818;SDS011;6474;53.474;9.894;2022-10-31T03:52:43;6.73;;;5.47;;
12818;SDS011;6474;53.474;9.894;2022-10-31T03:55:17;8.43;;;5.83;;
12818;SDS011;6474;53.474;9.894;2022-10-31T03:57:48;17.67;;;5.50;;
12818;SDS011;6474;53.474;9.894;2022-10-31T04:00:21;6.00;;;4.73;;
12818;SDS011;6474;53.474;9.894;2022-10-31T04:02:50;8.60;;;5.17;;
12818;SDS011;6474;53.474;9.894;2022-10-31T04:05:26;11.47;;;6.70;;
12818;SDS011;6474;53.474;9.894;2022-10-31T04:07:57;8.37;;;5.73;;
12818;SDS011;6474;53.474;9.894;2022-10-31T04:10:26;8.23;;;5.77;;
12818;SDS011;6474;53.474;9.894;2022-10-31T04:13:00;9.60;;;6.40;;
12818;SDS011;6474;53.474;9.894;2022-10-31T04:15:32;7.90;;;6.10;;
12818;SDS011;6474;53.474;9.894;2022-10-31T04:18:00;9.23;;;5.97;;
12818;SDS011;6474;53.474;9.894;2022-10-31T04:20:32;8.63;;;6.20;;
12818;SDS011;6474;53.474;9.894;2022-10-31T04:23:03;7.73;;;6.70;;
12818;SDS011;6474;53.474;9.894;2022-10-31T04:25:36;7.67;;;6.00;;
12818;SDS011;6474;53.474;9.894;2022-10-31T04:28:04;12.13;;;5.80;;
12818;SDS011;6474;53.474;9.894;2022-10-31T04:30:31;12.13;;;6.60;;
12818;SDS011;6474;53.474;9.894;2022-10-31T04:32:59;7.53;;;5.50;;
12818;SDS011;6474;53.474;9.894;2022-10-31T04:35:28;11.80;;;5.77;;
12818;SDS011;6474;53.474;9.894;2022-10-31T04:37:57;11.93;;;6.60;;
12818;SDS011;6474;53.474;9.894;2022-10-31T04:40:25;9.43;;;6.60;;
12818;SDS011;6474;53.474;9.894;2022-10-31T04:42:52;8.23;;;5.30;;
12818;SDS011;6474;53.474;9.894;2022-10-31T04:45:20;14.17;;;6.73;;
12818;SDS011;6474;53.474;9.894;2022-10-31T04:47:48;8.07;;;5.67;;
12818;SDS011;6474;53.474;9.894;2022-10-31T04:50:16;14.63;;;6.40;;
12818;SDS011;6474;53.474;9.894;2022-10-31T04:52:45;6.90;;;5.40;;
12818;SDS011;6474;53.474;9.894;2022-10-31T04:55:15;7.37;;;5.70;;
12818;SDS011;6474;53.474;9.894;2022-10-31T04:57:43;9.57;;;5.93;;
12818;SDS011;6474;53.474;9.894;2022-10-31T05:00:13;8.47;;;5.57;;
12818;SDS011;6474;53.474;9.894;2022-10-31T05:02:43;7.00;;;5.27;;
12818;SDS011;6474;53.474;9.894;2022-10-31T05:05:11;9.70;;;5.83;;
12818;SDS011;6474;53.474;9.894;2022-10-31T05:07:39;8.60;;;5.17;;
12818;SDS011;6474;53.474;9.894;2022-10-31T05:10:08;7.00;;;5.13;;
12818;SDS011;6474;53.474;9.894;2022-10-31T05:12:40;8.23;;;5.13;;
12818;SDS011;6474;53.474;9.894;2022-10-31T05:15:14;8.70;;;5.37;;
12818;SDS011;6474;53.474;9.894;2022-10-31T05:17:42;6.73;;;4.40;;
12818;SDS011;6474;53.474;9.894;2022-10-31T05:20:11;7.03;;;4.83;;
12818;SDS011;6474;53.474;9.894;2022-10-31T05:22:41;8.57;;;5.93;;
12818;SDS011;6474;53.474;9.894;2022-10-31T05:25:10;5.57;;;4.27;;
12818;SDS011;6474;53.474;9.894;2022-10-31T05:27:40;5.40;;;4.90;;
12818;SDS011;6474;53.474;9.894;2022-10-31T05:30:10;7.80;;;5.43;;
12818;SDS011;6474;53.474;9.894;2022-10-31T05:32:39;9.20;;;5.30;;
12818;SDS011;6474;53.474;9.894;2022-10-31T05:35:07;5.27;;;4.70;;
12818;SDS011;6474;53.474;9.894;2022-10-31T05:37:39;6.17;;;5.27;;
12818;SDS011;6474;53.474;9.894;2022-10-31T05:40:08;5.50;;;4.07;;
12818;SDS011;6474;53.474;9.894;2022-10-31T05:42:37;5.73;;;4.80;;
12818;SDS011;6474;53.474;9.894;2022-10-31T05:45:08;9.00;;;4.67;;
12818;SDS011;6474;53.474;9.894;2022-10-31T05:47:37;7.93;;;5.67;;
12818;SDS011;6474;53.474;9.894;2022-10-31T05:50:05;7.17;;;4.60;;
12818;SDS011;6474;53.474;9.894;2022-10-31T05:52:34;5.40;;;4.77;;
12818;SDS011;6474;53.474;9.894;2022-10-31T05:55:03;4.33;;;3.83;;
12818;SDS011;6474;53.474;9.894;2022-10-31T05:57:31;5.20;;;4.47;;
12818;SDS011;6474;53.474;9.894;2022-10-31T06:00:00;6.20;;;4.67;;
12818;SDS011;6474;53.474;9.894;2022-10-31T06:02:30;7.70;;;5.47;;
12818;SDS011;6474;53.474;9.894;2022-10-31T06:05:00;5.10;;;4.63;;
12818;SDS011;6474;53.474;9.894;2022-10-31T06:07:31;10.07;;;5.63;;
12818;SDS011;6474;53.474;9.894;2022-10-31T06:10:00;3.97;;;3.50;;
12818;SDS011;6474;53.474;9.894;2022-10-31T06:12:28;4.63;;;4.00;;
12818;SDS011;6474;53.474;9.894;2022-10-31T06:14:56;4.23;;;3.90;;
12818;SDS011;6474;53.474;9.894;2022-10-31T06:17:24;4.20;;;3.80;;
12818;SDS011;6474;53.474;9.894;2022-10-31T06:19:53;4.20;;;3.90;;
12818;SDS011;6474;53.474;9.894;2022-10-31T06:22:21;4.73;;;3.87;;
12818;SDS011;6474;53.474;9.894;2022-10-31T06:24:49;4.93;;;4.53;;
12818;SDS011;6474;53.474;9.894;2022-10-31T06:27:17;5.13;;;4.37;;
12818;SDS011;6474;53.474;9.894;2022-10-31T06:29:45;4.93;;;4.03;;
12818;SDS011;6474;53.474;9.894;2022-10-31T06:32:13;4.90;;;3.60;;
12818;SDS011;6474;53.474;9.894;2022-10-31T06:34:41;4.30;;;3.97;;
12818;SDS011;6474;53.474;9.894;2022-10-31T06:37:11;8.33;;;4.40;;
12818;SDS011;6474;53.474;9.894;2022-10-31T06:39:39;7.77;;;3.90;;
12818;SDS011;6474;53.474;9.894;2022-10-31T06:42:07;5.50;;;3.80;;
12818;SDS011;6474;53.474;9.894;2022-10-31T06:44:34;4.43;;;4.03;;
12818;SDS011;6474;53.474;9.894;2022-10-31T06:47:02;4.03;;;3.70;;
12818;SDS011;6474;53.474;9.894;2022-10-31T06:49:30;5.17;;;4.50;;
12818;SDS011;6474;53.474;9.894;2022-10-31T06:51:58;5.27;;;4.20;;
12818;SDS011;6474;53.474;9.894;2022-10-31T06:54:27;3.47;;;3.17;;
12818;SDS011;6474;53.474;9.894;2022-10-31T06:56:55;4.67;;;3.63;;
12818;SDS011;6474;53.474;9.894;2022-10-31T06:59:22;4.93;;;4.43;;
12818;SDS011;6474;53.474;9.894;2022-10-31T07:01:52;4.57;;;3.73;;
12818;SDS011;6474;53.474;9.894;2022-10-31T07:04:20;6.03;;;4.17;;
12818;SDS011;6474;53.474;9.894;2022-10-31T07:06:50;6.10;;;3.43;;
12818;SDS011;6474;53.474;9.894;2022-10-31T07:09:18;4.40;;;3.63;;
12818;SDS011;6474;53.474;9.894;2022-10-31T07:11:47;5.97;;;4.00;;
12818;SDS011;6474;53.474;9.894;2022-10-31T07:14:15;4.20;;;3.87;;
12818;SDS011;6474;53.474;9.894;2022-10-31T07:16:42;3.93;;;3.60;;
12818;SDS011;6474;53.474;9.894;2022-10-31T07:19:10;4.87;;;4.13;;
12818;SDS011;6474;53.474;9.894;2022-10-31T07:21:38;4.50;;;3.93;;
12818;SDS011;6474;53.474;9.894;2022-10-31T07:24:06;6.77;;;3.93;;
12818;SDS011;6474;53.474;9.894;2022-10-31T07:26:34;4.10;;;3.80;;
12818;SDS011;6474;53.474;9.894;2022-10-31T07:29:03;5.20;;;4.67;;
12818;SDS011;6474;53.474;9.894;2022-10-31T07:31:31;5.43;;;4.50;;
12818;SDS011;6474;53.474;9.894;2022-10-31T07:33:58;6.57;;;3.90;;
12818;SDS011;6474;53.474;9.894;2022-10-31T07:36:26;4.33;;;3.63;;
12818;SDS011;6474;53.474;9.894;2022-10-31T07:38:54;6.30;;;4.13;;
12818;SDS011;6474;53.474;9.894;2022-10-31T07:41:24;4.33;;;4.03;;
12818;SDS011;6474;53.474;9.894;2022-10-31T07:43:52;5.20;;;4.70;;
12818;SDS011;6474;53.474;9.894;2022-10-31T07:46:22;7.30;;;4.80;;
12818;SDS011;6474;53.474;9.894;2022-10-31T07:48:50;5.17;;;4.27;;
12818;SDS011;6474;53.474;9.894;2022-10-31T07:51:18;5.07;;;3.77;;
12818;SDS011;6474;53.474;9.894;2022-10-31T07:53:45;5.00;;;4.37;;
12818;SDS011;6474;53.474;9.894;2022-10-31T07:56:13;4.73;;;4.33;;
12818;SDS011;6474;53.474;9.894;2022-10-31T07:58:41;3.87;;;3.57;;
12818;SDS011;6474;53.474;9.894;2022-10-31T08:01:09;4.83;;;4.37;;
12818;SDS011;6474;53.474;9.894;2022-10-31T08:03:44;6.53;;;4.40;;
12818;SDS011;6474;53.474;9.894;2022-10-31T08:06:12;6.80;;;4.37;;
12818;SDS011;6474;53.474;9.894;2022-10-31T08:08:39;5.43;;;3.93;;
12818;SDS011;6474;53.474;9.894;2022-10-31T08:11:07;4.33;;;4.00;;
12818;SDS011;6474;53.474;9.894;2022-10-31T08:13:35;3.87;;;3.57;;
12818;SDS011;6474;53.474;9.894;2022-10-31T08:16:03;5.27;;;4.20;;
12818;SDS011;6474;53.474;9.894;2022-10-31T08:18:33;3.57;;;3.27;;
12818;SDS011;6474;53.474;9.894;2022-10-31T08:21:04;4.50;;;4.07;;
12818;SDS011;6474;53.474;9.894;2022-10-31T08:23:36;3.60;;;3.30;;
12818;SDS011;6474;53.474;9.894;2022-10-31T08:26:04;3.83;;;3.43;;
12818;SDS011;6474;53.474;9.894;2022-10-31T08:28:32;4.93;;;4.20;;
12818;SDS011;6474;53.474;9.894;2022-10-31T08:31:00;3.77;;;3.47;;
12818;SDS011;6474;53.474;9.894;2022-10-31T08:33:27;5.90;;;4.03;;
12818;SDS011;6474;53.474;9.894;2022-10-31T08:35:57;5.17;;;3.83;;
12818;SDS011;6474;53.474;9.894;2022-10-31T08:38:26;3.60;;;3.40;;
12818;SDS011;6474;53.474;9.894;2022-10-31T08:40:55;2.90;;;2.67;;
12818;SDS011;6474;53.474;9.894;2022-10-31T08:43:23;3.80;;;3.37;;
12818;SDS011;6474;53.474;9.894;2022-10-31T08:45:50;3.80;;;3.43;;
12818;SDS011;6474;53.474;9.894;2022-10-31T08:48:21;4.60;;;4.20;;
12818;SDS011;6474;53.474;9.894;2022-10-31T08:50:48;3.73;;;3.43;;
12818;SDS011;6474;53.474;9.894;2022-10-31T08:53:17;4.77;;;4.47;;
12818;SDS011;6474;53.474;9.894;2022-10-31T08:55:47;4.27;;;3.90;;
12818;SDS011;6474;53.474;9.894;2022-10-31T08:58:16;5.27;;;3.67;;
12818;SDS011;6474;53.474;9.894;2022-10-31T09:00:45;3.40;;;3.10;;
12818;SDS011;6474;53.474;9.894;2022-10-31T09:03:14;2.97;;;2.77;;
12818;SDS011;6474;53.474;9.894;2022-10-31T09:05:43;5.40;;;3.00;;
12818;SDS011;6474;53.474;9.894;2022-10-31T09:08:12;4.00;;;3.63;;
12818;SDS011;6474;53.474;9.894;2022-10-31T09:10:42;4.50;;;3.70;;
12818;SDS011;6474;53.474;9.894;2022-10-31T09:13:13;6.03;;;3.20;;
12818;SDS011;6474;53.474;9.894;2022-10-31T09:15:43;3.50;;;3.27;;
12818;SDS011;6474;53.474;9.894;2022-10-31T09:18:13;3.70;;;3.40;;
12818;SDS011;6474;53.474;9.894;2022-10-31T09:20:42;8.30;;;3.93;;
12818;SDS011;6474;53.474;9.894;2022-10-31T09:23:12;3.80;;;3.60;;
12818;SDS011;6474;53.474;9.894;2022-10-31T09:25:41;3.33;;;3.13;;
12818;SDS011;6474;53.474;9.894;2022-10-31T09:28:18;4.83;;;3.00;;
12818;SDS011;6474;53.474;9.894;2022-10-31T09:30:48;3.50;;;3.30;;
12818;SDS011;6474;53.474;9.894;2022-10-31T09:33:17;5.40;;;3.40;;
12818;SDS011;6474;53.474;9.894;2022-10-31T09:35:45;3.70;;;2.73;;
12818;SDS011;6474;53.474;9.894;2022-10-31T09:38:14;4.13;;;3.20;;
12818;SDS011;6474;53.474;9.894;2022-10-31T09:40:45;4.10;;;3.57;;
12818;SDS011;6474;53.474;9.894;2022-10-31T09:43:18;2.97;;;2.87;;
12818;SDS011;6474;53.474;9.894;2022-10-31T09:45:58;3.60;;;3.30;;
12818;SDS011;6474;53.474;9.894;2022-10-31T09:48:35;3.40;;;3.10;;
12818;SDS011;6474;53.474;9.894;2022-10-31T09:51:10;4.07;;;3.63;;
12818;SDS011;6474;53.474;9.894;2022-10-31T09:53:43;3.97;;;3.63;;
12818;SDS011;6474;53.474;9.894;2022-10-31T09:56:16;3.03;;;2.83;;
12818;SDS011;6474;53.474;9.894;2022-10-31T09:58:48;3.83;;;3.53;;
12818;SDS011;6474;53.474;9.894;2022-10-31T10:01:23;3.07;;;2.87;;
12818;SDS011;6474;53.474;9.894;2022-10-31T10:03:58;3.93;;;3.17;;
12818;SDS011;6474;53.474;9.894;2022-10-31T10:06:31;3.97;;;3.60;;
12818;SDS011;6474;53.474;9.894;2022-10-31T10:09:02;4.40;;;3.67;;
12818;SDS011;6474;53.474;9.894;2022-10-31T10:11:37;3.77;;;3.23;;
12818;SDS011;6474;53.474;9.894;2022-10-31T10:14:24;4.13;;;3.83;;
12818;SDS011;6474;53.474;9.894;2022-10-31T10:17:05;3.40;;;3.20;;
12818;SDS011;6474;53.474;9.894;2022-10-31T10:19:45;4.67;;;4.10;;
12818;SDS011;6474;53.474;9.894;2022-10-31T10:22:30;4.50;;;3.73;;
12818;SDS011;6474;53.474;9.894;2022-10-31T10:27:46;6.47;;;4.20;;
12818;SDS011;6474;53.474;9.894;2022-10-31T10:30:21;4.40;;;4.00;;
12818;SDS011;6474;53.474;9.894;2022-10-31T10:32:55;4.07;;;3.57;;
12818;SDS011;6474;53.474;9.894;2022-10-31T10:35:26;7.17;;;4.07;;
12818;SDS011;6474;53.474;9.894;2022-10-31T10:37:58;5.00;;;4.50;;
12818;SDS011;6474;53.474;9.894;2022-10-31T10:40:29;4.30;;;3.93;;
12818;SDS011;6474;53.474;9.894;2022-10-31T10:43:05;4.70;;;4.23;;
12818;SDS011;6474;53.474;9.894;2022-10-31T10:45:49;4.37;;;3.83;;
12818;SDS011;6474;53.474;9.894;2022-10-31T10:48:43;4.20;;;3.80;;
12818;SDS011;6474;53.474;9.894;2022-10-31T10:51:22;4.47;;;4.10;;
12818;SDS011;6474;53.474;9.894;2022-10-31T10:57:11;5.70;;;3.87;;
12818;SDS011;6474;53.474;9.894;2022-10-31T10:59:49;9.10;;;4.57;;
12818;SDS011;6474;53.474;9.894;2022-10-31T11:02:20;5.80;;;3.80;;
12818;SDS011;6474;53.474;9.894;2022-10-31T11:04:51;4.60;;;4.20;;
12818;SDS011;6474;53.474;9.894;2022-10-31T11:07:21;4.47;;;3.70;;
12818;SDS011;6474;53.474;9.894;2022-10-31T11:09:48;4.20;;;3.53;;
12818;SDS011;6474;53.474;9.894;2022-10-31T11:12:17;4.43;;;3.80;;
12818;SDS011;6474;53.474;9.894;2022-10-31T11:14:49;3.37;;;3.07;;
12818;SDS011;6474;53.474;9.894;2022-10-31T11:17:25;3.57;;;3.27;;
12818;SDS011;6474;53.474;9.894;2022-10-31T11:20:02;3.87;;;3.40;;
12818;SDS011;6474;53.474;9.894;2022-10-31T11:22:31;3.60;;;3.30;;
12818;SDS011;6474;53.474;9.894;2022-10-31T11:24:59;3.93;;;3.63;;
12818;SDS011;6474;53.474;9.894;2022-10-31T11:27:27;3.07;;;2.80;;
12818;SDS011;6474;53.474;9.894;2022-10-31T11:30:03;3.70;;;3.20;;
12818;SDS011;6474;53.474;9.894;2022-10-31T11:32:34;4.07;;;3.77;;
12818;SDS011;6474;53.474;9.894;2022-10-31T11:35:02;3.40;;;3.20;;
12818;SDS011;6474;53.474;9.894;2022-10-31T11:37:39;3.90;;;3.50;;
12818;SDS011;6474;53.474;9.894;2022-10-31T11:40:15;3.83;;;3.47;;
12818;SDS011;6474;53.474;9.894;2022-10-31T11:42:45;4.13;;;3.70;;
12818;SDS011;6474;53.474;9.894;2022-10-31T11:45:15;6.17;;;3.50;;
12818;SDS011;6474;53.474;9.894;2022-10-31T11:47:46;3.67;;;3.37;;
12818;SDS011;6474;53.474;9.894;2022-10-31T11:50:24;4.40;;;4.00;;
12818;SDS011;6474;53.474;9.894;2022-10-31T11:52:54;3.97;;;3.67;;
12818;SDS011;6474;53.474;9.894;2022-10-31T11:55:29;3.17;;;2.97;;
12818;SDS011;6474;53.474;9.894;2022-10-31T11:57:58;3.67;;;3.37;;
12818;SDS011;6474;53.474;9.894;2022-10-31T12:00:27;4.03;;;3.23;;
12818;SDS011;6474;53.474;9.894;2022-10-31T12:03:15;4.63;;;4.03;;
12818;SDS011;6474;53.474;9.894;2022-10-31T12:05:52;5.57;;;4.27;;
12818;SDS011;6474;53.474;9.894;2022-10-31T12:08:23;4.90;;;4.00;;
12818;SDS011;6474;53.474;9.894;2022-10-31T12:10:57;5.03;;;3.40;;
12818;SDS011;6474;53.474;9.894;2022-10-31T12:13:32;7.57;;;4.60;;
12818;SDS011;6474;53.474;9.894;2022-10-31T12:16:06;4.13;;;3.83;;
12818;SDS011;6474;53.474;9.894;2022-10-31T12:18:46;5.37;;;3.80;;
12818;SDS011;6474;53.474;9.894;2022-10-31T12:21:34;4.30;;;3.90;;
12818;SDS011;6474;53.474;9.894;2022-10-31T12:24:18;4.13;;;3.73;;
12818;SDS011;6474;53.474;9.894;2022-10-31T12:26:59;3.43;;;3.23;;
12818;SDS011;6474;53.474;9.894;2022-10-31T12:29:51;3.90;;;3.60;;
12818;SDS011;6474;53.474;9.894;2022-10-31T12:32:30;3.50;;;3.17;;
12818;SDS011;6474;53.474;9.894;2022-10-31T12:38:09;5.77;;;3.53;;
12818;SDS011;6474;53.474;9.894;2022-10-31T12:41:02;2.93;;;2.73;;
12818;SDS011;6474;53.474;9.894;2022-10-31T12:43:41;2.40;;;2.30;;
12818;SDS011;6474;53.474;9.894;2022-10-31T12:46:16;2.07;;;1.87;;
12818;SDS011;6474;53.474;9.894;2022-10-31T12:51:59;2.00;;;1.90;;
12818;SDS011;6474;53.474;9.894;2022-10-31T12:54:42;1.47;;;1.47;;
12818;SDS011;6474;53.474;9.894;2022-10-31T12:57:30;1.10;;;1.00;;
12818;SDS011;6474;53.474;9.894;2022-10-31T13:00:03;1.17;;;1.17;;
12818;SDS011;6474;53.474;9.894;2022-10-31T13:02:35;1.40;;;1.40;;
12818;SDS011;6474;53.474;9.894;2022-10-31T13:05:13;1.30;;;1.30;;
12818;SDS011;6474;53.474;9.894;2022-10-31T13:07:47;1.20;;;1.20;;
12818;SDS011;6474;53.474;9.894;2022-10-31T13:10:19;1.53;;;1.43;;
12818;SDS011;6474;53.474;9.894;2022-10-31T13:12:52;1.20;;;1.20;;
12818;SDS011;6474;53.474;9.894;2022-10-31T13:15:26;1.53;;;1.53;;
12818;SDS011;6474;53.474;9.894;2022-10-31T13:17:56;1.30;;;1.30;;
12818;SDS011;6474;53.474;9.894;2022-10-31T13:20:27;1.50;;;1.40;;
12818;SDS011;6474;53.474;9.894;2022-10-31T13:23:02;1.10;;;1.10;;
12818;SDS011;6474;53.474;9.894;2022-10-31T13:25:55;1.03;;;1.03;;
12818;SDS011;6474;53.474;9.894;2022-10-31T13:28:28;2.67;;;1.50;;
12818;SDS011;6474;53.474;9.894;2022-10-31T13:31:00;1.60;;;1.50;;
12818;SDS011;6474;53.474;9.894;2022-10-31T13:33:29;1.47;;;1.43;;
12818;SDS011;6474;53.474;9.894;2022-10-31T13:36:06;1.87;;;1.60;;
12818;SDS011;6474;53.474;9.894;2022-10-31T13:38:46;1.23;;;1.23;;
12818;SDS011;6474;53.474;9.894;2022-10-31T13:41:22;1.40;;;1.40;;
12818;SDS011;6474;53.474;9.894;2022-10-31T13:44:01;1.33;;;1.33;;
12818;SDS011;6474;53.474;9.894;2022-10-31T13:46:35;1.63;;;1.53;;
12818;SDS011;6474;53.474;9.894;2022-10-31T13:49:21;1.50;;;1.50;;
12818;SDS011;6474;53.474;9.894;2022-10-31T13:51:52;2.73;;;1.43;;
12818;SDS011;6474;53.474;9.894;2022-10-31T13:54:22;1.10;;;1.10;;
12818;SDS011;6474;53.474;9.894;2022-10-31T13:56:51;1.60;;;1.60;;
12818;SDS011;6474;53.474;9.894;2022-10-31T13:59:21;1.60;;;1.60;;
12818;SDS011;6474;53.474;9.894;2022-10-31T14:01:53;1.70;;;1.60;;
12818;SDS011;6474;53.474;9.894;2022-10-31T14:04:24;1.70;;;1.70;;
12818;SDS011;6474;53.474;9.894;2022-10-31T14:06:56;2.70;;;2.50;;
12818;SDS011;6474;53.474;9.894;2022-10-31T14:09:33;2.10;;;2.07;;
12818;SDS011;6474;53.474;9.894;2022-10-31T14:12:05;2.50;;;2.40;;
12818;SDS011;6474;53.474;9.894;2022-10-31T14:14:39;2.17;;;2.07;;
12818;SDS011;6474;53.474;9.894;2022-10-31T14:17:16;2.43;;;2.33;;
12818;SDS011;6474;53.474;9.894;2022-10-31T14:19:58;2.83;;;2.73;;
12818;SDS011;6474;53.474;9.894;2022-10-31T14:22:29;3.27;;;3.13;;
12818;SDS011;6474;53.474;9.894;2022-10-31T14:25:01;2.87;;;2.60;;
12818;SDS011;6474;53.474;9.894;2022-10-31T14:27:51;2.83;;;2.63;;
12818;SDS011;6474;53.474;9.894;2022-10-31T14:30:20;3.13;;;2.47;;
12818;SDS011;6474;53.474;9.894;2022-10-31T14:32:51;2.53;;;2.33;;
12818;SDS011;6474;53.474;9.894;2022-10-31T14:35:20;2.10;;;2.00;;
12818;SDS011;6474;53.474;9.894;2022-10-31T14:38:05;2.47;;;2.27;;
12818;SDS011;6474;53.474;9.894;2022-10-31T14:40:50;2.47;;;2.33;;
12818;SDS011;6474;53.474;9.894;2022-10-31T14:43:45;2.40;;;2.30;;
12818;SDS011;6474;53.474;9.894;2022-10-31T14:46:43;2.53;;;2.43;;
12818;SDS011;6474;53.474;9.894;2022-10-31T14:49:21;2.30;;;2.20;;
12818;SDS011;6474;53.474;9.894;2022-10-31T14:52:02;2.20;;;2.10;;
12818;SDS011;6474;53.474;9.894;2022-10-31T14:54:35;1.83;;;1.73;;
12818;SDS011;6474;53.474;9.894;2022-10-31T14:57:14;2.27;;;2.20;;
12818;SDS011;6474;53.474;9.894;2022-10-31T14:59:46;2.20;;;2.20;;
12818;SDS011;6474;53.474;9.894;2022-10-31T15:02:19;2.80;;;2.27;;
12818;SDS011;6474;53.474;9.894;2022-10-31T15:04:51;2.23;;;2.00;;
12818;SDS011;6474;53.474;9.894;2022-10-31T15:07:21;2.63;;;2.47;;
12818;SDS011;6474;53.474;9.894;2022-10-31T15:09:55;3.10;;;2.87;;
12818;SDS011;6474;53.474;9.894;2022-10-31T15:12:26;2.93;;;2.83;;
12818;SDS011;6474;53.474;9.894;2022-10-31T15:14:55;3.07;;;2.87;;
12818;SDS011;6474;53.474;9.894;2022-10-31T15:17:24;3.10;;;2.90;;
12818;SDS011;6474;53.474;9.894;2022-10-31T15:19:53;3.33;;;3.03;;
12818;SDS011;6474;53.474;9.894;2022-10-31T15:22:23;3.13;;;2.67;;
12818;SDS011;6474;53.474;9.894;2022-10-31T15:24:53;3.40;;;2.90;;
12818;SDS011;6474;53.474;9.894;2022-10-31T15:27:23;3.13;;;2.93;;
12818;SDS011;6474;53.474;9.894;2022-10-31T15:29:53;7.30;;;2.87;;
12818;SDS011;6474;53.474;9.894;2022-10-31T15:32:23;4.57;;;3.67;;
12818;SDS011;6474;53.474;9.894;2022-10-31T15:34:53;3.67;;;3.27;;
12818;SDS011;6474;53.474;9.894;2022-10-31T15:37:23;5.60;;;3.67;;
12818;SDS011;6474;53.474;9.894;2022-10-31T15:39:52;2.70;;;2.50;;
12818;SDS011;6474;53.474;9.894;2022-10-31T15:42:21;4.87;;;3.70;;
12818;SDS011;6474;53.474;9.894;2022-10-31T15:44:54;3.80;;;3.50;;
12818;SDS011;6474;53.474;9.894;2022-10-31T15:47:30;3.63;;;3.30;;